Time;durP1;ratioP1;P1;durP2;ratioP2;P2;SDS_P1;SDS_P2;PMS_P1;PMS_P2;Temp;Humidity;BMP_temperature;BMP_pressure;BME280_temperature;BME280_humidity;BME280_pressure;Samples;Min_cycle;Max_cycle;Signal;HPM_P1;HPM_P2
2021/12/08 00:01:58;;;;;;;10.10;4.28;;;2.70;99.90;;;;;;5023669;28;20042;-68
2021/12/08 00:04:24;;;;;;;18.23;5.20;;;2.60;99.90;;;;;;5022098;28;20073;-67
2021/12/08 00:06:49;;;;;;;13.87;5.57;;;2.60;99.90;;;;;;5022082;28;20050;-68
2021/12/08 00:09:35;;;;;;;11.77;4.93;;;2.60;99.90;;;;;;5038564;28;20108;-68
2021/12/08 00:14:45;;;;;;;12.00;4.93;;;2.40;99.90;;;;;;5021574;28;20121;-68
2021/12/08 00:17:11;;;;;;;10.80;5.57;;;2.40;99.90;;;;;;5022081;28;20068;-68
2021/12/08 00:19:37;;;;;;;13.40;5.47;;;2.30;99.90;;;;;;5023724;28;20042;-68
2021/12/08 00:22:03;;;;;;;13.30;5.33;;;2.30;99.90;;;;;;5023439;28;20045;-68
2021/12/08 00:24:28;;;;;;;16.67;5.85;;;2.40;99.90;;;;;;5042986;28;20053;-67
2021/12/08 00:26:56;;;;;;;13.45;5.90;;;2.40;99.90;;;;;;5021488;28;20120;-68
2021/12/08 00:29:22;;;;;;;13.65;5.85;;;2.40;99.90;;;;;;5023674;28;20065;-68
2021/12/08 00:31:48;;;;;;;14.30;6.20;;;2.40;99.90;;;;;;5021878;28;20053;-68
2021/12/08 00:34:14;;;;;;;13.90;5.63;;;2.40;99.90;;;;;;5015459;28;20070;-67
2021/12/08 00:36:43;;;;;;;13.68;6.20;;;2.40;99.90;;;;;;5023324;28;20289;-68
2021/12/08 00:39:09;;;;;;;12.23;5.75;;;2.40;99.90;;;;;;5023173;28;20418;-67
2021/12/08 00:41:35;;;;;;;11.75;6.03;;;2.50;99.90;;;;;;5021445;28;20136;-68
2021/12/08 00:44:00;;;;;;;15.93;6.03;;;2.50;99.90;;;;;;5021972;28;20074;-68
2021/12/08 00:46:26;;;;;;;16.40;6.33;;;2.50;99.90;;;;;;5021076;28;20113;-67
2021/12/08 00:48:52;;;;;;;10.05;6.15;;;2.50;99.90;;;;;;5022892;28;20042;-68
2021/12/08 00:51:18;;;;;;;13.93;5.90;;;2.50;99.90;;;;;;5021607;28;20061;-67
2021/12/08 00:53:45;;;;;;;13.57;6.30;;;2.50;99.90;;;;;;5021537;28;20121;-68
2021/12/08 00:56:12;;;;;;;15.93;6.25;;;2.50;99.90;;;;;;5020808;28;20057;-68
2021/12/08 00:58:38;;;;;;;13.40;6.57;;;2.60;99.90;;;;;;5021481;28;20070;-68
2021/12/08 01:01:07;;;;;;;12.90;6.13;;;2.50;99.90;;;;;;5021218;28;20157;-68
2021/12/08 01:03:36;;;;;;;15.00;6.50;;;2.60;99.90;;;;;;5021467;28;20050;-67
2021/12/08 01:06:04;;;;;;;14.70;6.13;;;2.60;99.90;;;;;;5020524;28;20061;-68
2021/12/08 01:08:31;;;;;;;12.05;6.10;;;2.60;99.90;;;;;;5021012;28;20084;-68
2021/12/08 01:11:03;;;;;;;13.50;5.75;;;2.60;99.90;;;;;;5022538;28;20061;-67
2021/12/08 01:13:28;;;;;;;15.23;6.47;;;2.60;99.90;;;;;;5022583;28;20065;-68
2021/12/08 01:15:56;;;;;;;14.88;6.03;;;2.70;99.90;;;;;;5036613;28;20045;-68
2021/12/08 01:18:23;;;;;;;15.88;6.30;;;2.70;99.90;;;;;;5004131;28;20419;-68
2021/12/08 01:20:51;;;;;;;14.15;6.20;;;2.70;99.90;;;;;;5012136;28;20057;-67
2021/12/08 01:23:18;;;;;;;15.73;6.70;;;2.70;99.90;;;;;;5023002;28;20049;-67
2021/12/08 01:25:44;;;;;;;16.90;6.30;;;2.70;99.90;;;;;;5020829;28;20138;-68
2021/12/08 01:28:10;;;;;;;13.55;6.35;;;2.80;99.90;;;;;;5019043;28;20053;-68
2021/12/08 01:30:36;;;;;;;11.63;5.33;;;2.80;99.90;;;;;;5020845;28;20038;-68
2021/12/08 01:33:03;;;;;;;18.98;5.90;;;2.80;99.90;;;;;;5016674;28;20093;-68
2021/12/08 01:35:29;;;;;;;14.18;5.55;;;2.90;99.90;;;;;;5037377;28;20504;-68
2021/12/08 01:37:54;;;;;;;13.27;5.70;;;2.90;99.90;;;;;;5021980;28;20069;-68
2021/12/08 01:40:20;;;;;;;11.90;6.20;;;2.90;99.90;;;;;;5020343;28;20050;-68
2021/12/08 01:42:50;;;;;;;11.48;5.78;;;2.90;99.90;;;;;;5016533;28;20125;-67
2021/12/08 01:48:04;;;;;;;;;;;3.00;99.90;;;;;;5022816;28;20218;-67
2021/12/08 01:50:30;;;;;;;13.10;5.55;;;3.00;99.90;;;;;;5003663;28;20318;-68
2021/12/08 01:52:56;;;;;;;14.20;6.10;;;3.00;99.90;;;;;;4988651;28;20045;-68
2021/12/08 01:55:22;;;;;;;12.57;5.97;;;3.00;99.90;;;;;;5004018;28;20072;-68
2021/12/08 01:57:48;;;;;;;10.18;5.82;;;3.10;99.90;;;;;;5019625;28;20054;-67
2021/12/08 02:00:20;;;;;;;10.38;5.50;;;3.10;99.90;;;;;;5003969;28;20189;-68
2021/12/08 02:02:46;;;;;;;11.52;5.50;;;3.10;99.90;;;;;;5022350;28;20062;-68
2021/12/08 02:05:11;;;;;;;16.57;6.03;;;3.10;99.90;;;;;;5022043;28;20073;-68
2021/12/08 02:07:38;;;;;;;19.17;5.68;;;3.10;99.90;;;;;;5020762;28;20057;-68
2021/12/08 02:10:06;;;;;;;12.48;5.35;;;3.10;99.90;;;;;;5019847;28;20195;-67
2021/12/08 02:12:36;;;;;;;13.25;5.75;;;3.10;99.90;;;;;;5021745;28;20046;-68
2021/12/08 02:15:03;;;;;;;11.63;5.53;;;3.20;99.90;;;;;;5020538;28;20077;-68
2021/12/08 02:17:29;;;;;;;13.85;6.03;;;3.20;99.90;;;;;;5022120;28;20458;-68
2021/12/08 02:19:55;;;;;;;10.63;6.30;;;3.20;99.90;;;;;;5024050;28;20054;-68
2021/12/08 02:22:21;;;;;;;15.00;5.85;;;3.20;99.90;;;;;;5021553;28;20049;-68
2021/12/08 02:24:46;;;;;;;14.60;5.97;;;3.20;99.90;;;;;;5025260;28;20046;-68
2021/12/08 02:27:12;;;;;;;11.30;5.77;;;3.20;99.90;;;;;;5024194;28;20145;-68
2021/12/08 02:29:46;;;;;;;11.67;6.20;;;3.20;99.90;;;;;;5024066;28;20104;-67
2021/12/08 02:48:30;;;;;;;15.70;7.30;;;3.30;99.90;;;;;;5024999;28;20077;-68
2021/12/08 02:50:57;;;;;;;12.87;6.20;;;3.30;99.90;;;;;;5023662;28;20053;-68
2021/12/08 02:53:23;;;;;;;14.52;6.32;;;3.30;99.90;;;;;;5023206;28;20053;-68
2021/12/08 02:55:49;;;;;;;12.63;6.28;;;3.30;99.90;;;;;;5040091;28;20041;-68
2021/12/08 02:58:16;;;;;;;11.15;6.53;;;3.40;99.90;;;;;;5024208;28;20041;-68
2021/12/08 03:00:45;;;;;;;;;;;3.40;99.90;;;;;;5025813;28;20050;-68
2021/12/08 03:03:10;;;;;;;11.50;6.28;;;3.30;99.90;;;;;;5023113;28;20357;-68
2021/12/08 03:05:36;;;;;;;13.47;6.17;;;3.30;99.90;;;;;;5023289;28;20054;-68
2021/12/08 03:08:05;;;;;;;14.02;6.35;;;3.40;99.90;;;;;;5023279;28;20317;-68
2021/12/08 03:10:35;;;;;;;9.27;6.18;;;3.40;99.90;;;;;;5024638;28;20042;-68
2021/12/08 03:13:01;;;;;;;11.77;6.28;;;3.40;99.90;;;;;;5024783;28;20092;-68
2021/12/08 03:15:27;;;;;;;11.85;6.90;;;3.40;99.90;;;;;;5024553;28;20050;-68
2021/12/08 03:17:53;;;;;;;13.30;6.30;;;3.40;99.90;;;;;;5024572;28;20113;-68
2021/12/08 03:20:26;;;;;;;12.18;6.55;;;3.50;99.90;;;;;;5024477;28;20139;-68
2021/12/08 03:22:58;;;;;;;18.58;6.90;;;3.50;99.90;;;;;;5022764;28;20090;-68
2021/12/08 03:25:24;;;;;;;10.93;7.07;;;3.50;99.90;;;;;;5024442;28;20054;-68
2021/12/08 03:28:05;;;;;;;13.23;6.97;;;3.50;99.90;;;;;;5022771;28;20120;-68
2021/12/08 03:30:38;;;;;;;11.07;7.45;;;3.50;99.90;;;;;;5022221;28;20061;-68
2021/12/08 03:33:04;;;;;;;12.55;6.72;;;3.50;99.90;;;;;;5018406;28;20077;-68
2021/12/08 03:35:30;;;;;;;14.75;6.95;;;3.50;99.90;;;;;;5012336;28;20046;-68
2021/12/08 03:37:56;;;;;;;10.15;7.43;;;3.60;99.90;;;;;;5003129;28;20071;-68
2021/12/08 03:40:24;;;;;;;14.57;8.27;;;3.60;99.90;;;;;;5017885;28;20048;-68
2021/12/08 03:42:53;;;;;;;13.73;8.10;;;3.60;99.90;;;;;;5022385;28;20147;-68
2021/12/08 03:45:29;;;;;;;16.05;8.25;;;3.60;99.90;;;;;;5022246;28;20059;-68
2021/12/08 03:48:00;;;;;;;16.23;8.43;;;3.60;99.90;;;;;;5022544;28;20492;-68
2021/12/08 03:50:26;;;;;;;14.35;9.02;;;3.60;99.90;;;;;;5022165;28;20835;-68
2021/12/08 03:52:52;;;;;;;15.48;9.38;;;3.60;99.90;;;;;;5024492;28;20125;-68
2021/12/08 03:55:18;;;;;;;14.25;8.05;;;3.60;99.90;;;;;;5022193;28;20073;-68
2021/12/08 03:57:46;;;;;;;14.17;8.53;;;3.70;99.90;;;;;;5021706;28;20124;-68
2021/12/08 04:00:19;;;;;;;13.07;9.38;;;3.70;99.90;;;;;;5022806;28;20076;-68
2021/12/08 04:02:46;;;;;;;14.55;9.68;;;3.70;99.90;;;;;;5023594;28;20050;-68
2021/12/08 04:05:19;;;;;;;16.23;9.35;;;3.70;99.90;;;;;;5021539;28;20054;-68
2021/12/08 04:07:51;;;;;;;16.17;9.68;;;3.80;99.90;;;;;;5023438;28;20069;-68
2021/12/08 04:10:20;;;;;;;20.90;9.95;;;3.80;99.90;;;;;;5023412;28;20054;-68
2021/12/08 04:12:51;;;;;;;15.05;10.20;;;3.80;99.90;;;;;;5021970;28;20126;-68
2021/12/08 04:15:19;;;;;;;20.58;10.05;;;3.80;99.90;;;;;;5023443;28;20049;-66
2021/12/08 04:17:48;;;;;;;16.67;10.20;;;3.80;99.90;;;;;;5010118;28;20041;-66
2021/12/08 04:20:25;;;;;;;17.38;10.25;;;3.80;99.90;;;;;;5023394;28;20105;-67
2021/12/08 04:22:53;;;;;;;20.77;10.63;;;3.80;99.90;;;;;;5022063;28;20096;-67
2021/12/08 04:25:26;;;;;;;17.92;10.75;;;3.80;99.90;;;;;;5023168;28;20811;-68
2021/12/08 04:27:55;;;;;;;20.10;11.35;;;3.80;99.90;;;;;;5005308;28;20058;-69
2021/12/08 04:30:31;;;;;;;20.15;11.50;;;3.90;99.90;;;;;;5020524;28;20050;-68
2021/12/08 04:32:57;;;;;;;19.13;11.03;;;3.90;99.90;;;;;;5023409;28;20045;-69
2021/12/08 04:35:24;;;;;;;15.77;11.68;;;3.90;99.90;;;;;;5023441;28;20303;-68
2021/12/08 04:37:54;;;;;;;26.52;12.45;;;3.90;99.90;;;;;;5023121;28;20037;-67
2021/12/08 04:43:20;;;;;;;17.23;11.70;;;4.00;99.90;;;;;;5021462;28;20141;-67
2021/12/08 04:46:15;;;;;;;19.98;12.90;;;4.00;99.90;;;;;;5022847;28;20053;-67
2021/12/08 04:49:05;;;;;;;20.00;13.55;;;4.00;99.90;;;;;;5023010;28;20056;-67
2021/12/08 05:05:35;;;;;;;21.02;14.60;;;4.10;99.90;;;;;;5022723;28;20061;-67
2021/12/08 05:08:12;;;;;;;26.48;14.13;;;4.10;99.90;;;;;;5022545;28;20085;-67
2021/12/08 05:10:39;;;;;;;28.35;15.20;;;4.20;99.90;;;;;;5021609;28;20098;-67
2021/12/08 05:13:08;;;;;;;18.50;13.10;;;4.20;99.90;;;;;;5008727;28;20038;-67
2021/12/08 05:15:49;;;;;;;18.42;13.05;;;4.20;99.90;;;;;;5022490;28;20042;-67
2021/12/08 05:18:21;;;;;;;19.20;12.65;;;4.20;99.90;;;;;;5004632;28;20188;-67
2021/12/08 05:20:49;;;;;;;21.88;14.15;;;4.20;99.90;;;;;;5037135;28;20058;-68
2021/12/08 05:23:23;;;;;;;21.17;14.30;;;4.20;99.90;;;;;;5019321;28;20054;-67
2021/12/08 05:25:52;;;;;;;18.60;13.52;;;4.30;99.90;;;;;;5020872;28;20096;-67
2021/12/08 05:28:23;;;;;;;19.65;13.90;;;4.30;99.90;;;;;;5020574;28;20050;-67
2021/12/08 05:31:13;;;;;;;22.20;14.63;;;4.30;99.90;;;;;;5022369;28;20512;-67
2021/12/08 05:33:41;;;;;;;22.10;13.80;;;4.30;99.90;;;;;;5022080;28;20083;-67
2021/12/08 05:36:07;;;;;;;18.67;13.88;;;4.40;99.90;;;;;;5020365;28;20065;-67
2021/12/08 05:38:33;;;;;;;20.58;14.23;;;4.40;99.90;;;;;;5022135;28;20038;-67
2021/12/08 05:41:05;;;;;;;;;;;4.40;99.90;;;;;;5021173;28;20104;-67
2021/12/08 05:43:30;;;;;;;20.23;12.80;;;4.40;99.90;;;;;;5011272;28;20288;-67
2021/12/08 05:45:56;;;;;;;18.77;13.48;;;4.50;99.90;;;;;;5018575;28;20077;-67
2021/12/08 05:48:23;;;;;;;22.88;13.55;;;4.50;99.90;;;;;;5022026;28;20081;-67
2021/12/08 05:51:11;;;;;;;18.67;13.20;;;4.60;99.90;;;;;;5020577;28;20042;-68
2021/12/08 05:53:40;;;;;;;17.77;12.90;;;4.60;99.90;;;;;;5022642;28;20069;-67
2021/12/08 05:56:08;;;;;;;20.27;13.65;;;4.60;99.90;;;;;;5007960;28;20084;-67
2021/12/08 05:58:35;;;;;;;15.65;12.13;;;4.70;99.90;;;;;;5020624;28;20050;-67
2021/12/08 06:01:12;;;;;;;16.80;12.65;;;4.70;99.90;;;;;;5011739;28;20037;-67
2021/12/08 06:03:39;;;;;;;19.02;12.85;;;4.70;99.90;;;;;;5026073;28;20082;-67
2021/12/08 06:06:05;;;;;;;18.35;11.43;;;4.70;99.90;;;;;;5024043;28;20133;-67
2021/12/08 06:08:31;;;;;;;16.73;12.20;;;4.80;99.90;;;;;;5025690;28;20049;-67
2021/12/08 06:11:01;;;;;;;15.65;11.65;;;4.80;99.90;;;;;;5024327;28;20050;-67
2021/12/08 06:13:27;;;;;;;16.23;10.85;;;4.80;99.90;;;;;;5025317;28;20038;-67
2021/12/08 06:15:53;;;;;;;17.45;11.50;;;4.80;99.90;;;;;;5007467;28;20137;-68
2021/12/08 06:18:23;;;;;;;17.80;11.40;;;4.80;99.90;;;;;;5025508;28;20053;-67
2021/12/08 06:20:51;;;;;;;14.82;10.57;;;4.80;99.90;;;;;;5021570;28;20049;-67
2021/12/08 06:23:17;;;;;;;17.00;11.25;;;4.80;99.90;;;;;;5004483;28;20081;-67
2021/12/08 06:25:43;;;;;;;17.73;11.20;;;4.80;99.90;;;;;;5020888;28;20034;-67
2021/12/08 06:28:09;;;;;;;15.23;10.20;;;4.90;99.90;;;;;;5004120;28;20329;-67
2021/12/08 06:30:39;;;;;;;17.23;10.90;;;4.90;99.90;;;;;;5021936;28;20054;-68
2021/12/08 06:33:05;;;;;;;19.90;11.15;;;4.90;99.90;;;;;;5023193;28;20863;-67
2021/12/08 06:35:43;;;;;;;14.45;10.68;;;4.90;99.90;;;;;;5023512;28;20057;-67
2021/12/08 06:38:10;;;;;;;17.95;10.48;;;4.90;99.90;;;;;;5022501;28;20105;-67
2021/12/08 06:40:41;;;;;;;16.42;10.48;;;4.90;99.90;;;;;;5039727;28;20090;-67
2021/12/08 06:43:10;;;;;;;15.65;10.18;;;4.90;99.90;;;;;;5023608;28;20077;-68
2021/12/08 06:45:41;;;;;;;16.88;10.13;;;4.90;99.90;;;;;;5025018;28;20105;-67
2021/12/08 06:48:13;;;;;;;19.73;10.82;;;4.90;99.90;;;;;;5023129;28;20050;-67
2021/12/08 06:50:55;;;;;;;16.90;10.07;;;5.00;99.90;;;;;;5024546;28;20049;-67
2021/12/08 06:53:22;;;;;;;18.02;10.30;;;5.00;99.90;;;;;;5008556;28;20049;-67
2021/12/08 06:55:55;;;;;;;15.18;10.07;;;5.00;99.90;;;;;;5023341;28;20053;-67
2021/12/08 06:58:25;;;;;;;17.65;10.02;;;4.90;99.90;;;;;;5022801;28;20045;-68
2021/12/08 07:03:50;;;;;;;16.92;9.45;;;4.90;99.90;;;;;;5015365;28;20069;-67
2021/12/08 07:08:58;;;;;;;16.85;9.20;;;4.90;99.90;;;;;;5023031;28;20069;-67
2021/12/08 07:11:26;;;;;;;14.18;9.30;;;4.90;99.90;;;;;;5022440;28;20509;-67
2021/12/08 07:13:54;;;;;;;15.20;9.43;;;4.80;99.90;;;;;;5022759;28;20054;-67
2021/12/08 07:16:25;;;;;;;12.88;9.30;;;4.80;99.90;;;;;;5020880;28;20133;-67
2021/12/08 07:19:01;;;;;;;13.77;8.90;;;4.80;99.90;;;;;;5003556;28;20043;-67
2021/12/08 07:21:35;;;;;;;17.65;8.57;;;4.80;99.90;;;;;;5021721;28;20465;-67
2021/12/08 07:24:15;;;;;;;17.27;9.25;;;4.70;99.90;;;;;;5024254;28;20104;-67
2021/12/08 07:26:41;;;;;;;14.70;7.68;;;4.70;99.90;;;;;;5037382;28;20038;-68
2021/12/08 07:29:09;;;;;;;;;;;4.70;99.90;;;;;;5024256;28;20378;-64
2021/12/08 07:31:43;;;;;;;14.88;8.10;;;4.70;99.90;;;;;;5022172;28;19921;-58
2021/12/08 07:34:15;;;;;;;17.27;8.63;;;4.70;99.90;;;;;;5022095;28;20105;-64
2021/12/08 07:36:43;;;;;;;16.40;9.23;;;4.60;99.90;;;;;;5022211;28;20498;-63
2021/12/08 07:39:16;;;;;;;12.55;8.00;;;4.70;99.90;;;;;;5024338;28;20067;-61
2021/12/08 07:41:49;;;;;;;14.82;8.45;;;4.60;99.90;;;;;;5023183;28;20042;-62
2021/12/08 07:44:15;;;;;;;21.90;8.32;;;4.60;99.90;;;;;;5039283;28;20061;-62
2021/12/08 07:46:48;;;;;;;18.02;7.82;;;4.60;99.90;;;;;;5024054;28;20101;-64
2021/12/08 07:49:24;;;;;;;14.88;7.60;;;4.60;99.90;;;;;;5022583;28;20050;-64
2021/12/08 07:51:52;;;;;;;12.05;7.07;;;4.60;99.90;;;;;;5021914;28;20065;-65
2021/12/08 07:54:20;;;;;;;15.82;7.18;;;4.50;99.90;;;;;;5021985;28;20064;-64
2021/12/08 07:56:48;;;;;;;12.63;6.57;;;4.60;99.90;;;;;;5023402;28;20058;-64
2021/12/08 07:59:16;;;;;;;17.13;6.53;;;4.50;99.90;;;;;;5015390;28;20050;-66
2021/12/08 08:01:45;;;;;;;10.45;5.93;;;4.50;99.90;;;;;;5016513;28;20131;-65
2021/12/08 08:04:16;;;;;;;14.75;6.60;;;4.50;99.90;;;;;;5021828;28;20042;-63
2021/12/08 08:06:46;;;;;;;11.27;5.95;;;4.50;99.90;;;;;;5022999;28;20065;-66
2021/12/08 08:09:20;;;;;;;12.40;5.45;;;4.50;99.90;;;;;;5010810;28;20097;-64
2021/12/08 08:11:56;;;;;;;14.50;5.53;;;4.50;99.90;;;;;;5020564;28;20067;-64
2021/12/08 08:14:27;;;;;;;8.80;5.20;;;4.50;99.90;;;;;;5022047;28;20077;-64
2021/12/08 08:16:56;;;;;;;12.90;5.20;;;4.50;99.90;;;;;;5019312;28;20046;-65
2021/12/08 08:19:27;;;;;;;14.10;5.15;;;4.50;99.90;;;;;;5014072;28;20042;-64
2021/12/08 08:21:58;;;;;;;10.00;4.57;;;4.50;99.90;;;;;;5019376;28;20042;-63
2021/12/08 08:24:24;;;;;;;16.75;4.78;;;4.50;99.90;;;;;;5023142;28;20089;-64
2021/12/08 08:26:52;;;;;;;11.80;4.55;;;4.50;99.90;;;;;;5020541;28;20046;-65
2021/12/08 08:29:18;;;;;;;12.02;5.03;;;4.50;99.90;;;;;;5023698;28;20345;-65
2021/12/08 08:32:02;;;;;;;16.08;4.85;;;4.60;99.90;;;;;;5022846;28;20042;-66
2021/12/08 08:34:34;;;;;;;11.13;4.78;;;4.60;99.90;;;;;;5023257;28;20060;-67
2021/12/08 08:37:00;;;;;;;11.70;4.93;;;4.70;99.90;;;;;;5021967;28;20029;-66
2021/12/08 08:39:29;;;;;;;14.68;4.80;;;4.70;99.90;;;;;;5020732;28;20057;-66
2021/12/08 08:42:01;;;;;;;10.73;5.07;;;4.70;99.90;;;;;;5017416;28;20050;-66
2021/12/08 08:44:39;;;;;;;10.32;4.70;;;4.70;99.90;;;;;;5022044;28;20117;-66
2021/12/08 08:47:11;;;;;;;14.18;4.93;;;4.70;99.90;;;;;;5012233;28;20042;-66
2021/12/08 08:49:40;;;;;;;10.85;4.80;;;4.70;99.90;;;;;;5001833;28;20125;-67
2021/12/08 08:52:11;;;;;;;12.27;4.57;;;4.70;99.90;;;;;;5021691;28;20053;-68
2021/12/08 08:54:42;;;;;;;11.82;4.28;;;4.80;99.90;;;;;;5021444;28;20188;-65
2021/12/08 08:57:11;;;;;;;10.50;4.30;;;4.80;99.90;;;;;;5020857;28;20128;-66
2021/12/08 09:00:00;;;;;;;14.05;4.43;;;4.80;99.90;;;;;;5023034;28;20094;-66
2021/12/08 09:02:38;;;;;;;11.70;4.63;;;4.80;99.90;;;;;;5022410;28;20057;-63
2021/12/08 09:05:16;;;;;;;12.35;4.95;;;4.90;99.90;;;;;;5010613;28;20061;-66
2021/12/08 09:07:44;;;;;;;7.70;3.60;;;4.90;99.90;;;;;;5018720;28;20085;-65
2021/12/08 09:10:22;;;;;;;12.45;3.70;;;4.90;99.90;;;;;;5018966;28;20049;-64
2021/12/08 09:13:03;;;;;;;13.52;3.78;;;5.00;99.90;;;;;;5013802;28;20072;-66
2021/12/08 09:15:36;;;;;;;12.80;3.85;;;5.00;99.90;;;;;;5032296;28;20469;-64
2021/12/08 09:18:10;;;;;;;12.23;3.92;;;5.10;99.90;;;;;;5025061;28;20050;-65
2021/12/08 09:21:01;;;;;;;14.55;3.95;;;5.00;99.90;;;;;;5014842;28;20064;-62
2021/12/08 09:23:38;;;;;;;11.10;3.47;;;5.10;99.90;;;;;;5030225;28;20050;-62
2021/12/08 09:26:09;;;;;;;13.57;3.53;;;5.10;99.90;;;;;;5019235;28;20691;-62
2021/12/08 09:28:41;;;;;;;12.48;3.80;;;5.10;99.90;;;;;;5013070;28;20133;-63
2021/12/08 09:31:17;;;;;;;9.30;3.20;;;5.10;99.90;;;;;;5024792;28;20077;-62
2021/12/08 09:34:09;;;;;;;10.93;3.00;;;5.10;99.90;;;;;;5025156;28;20049;-62
2021/12/08 09:36:44;;;;;;;9.60;3.33;;;5.10;99.90;;;;;;5025065;28;20049;-62
2021/12/08 09:39:25;;;;;;;14.80;3.47;;;5.10;99.90;;;;;;5025065;28;20057;-62
2021/12/08 09:41:57;;;;;;;10.38;3.58;;;5.10;99.90;;;;;;5028168;28;20038;-64
2021/12/08 09:44:30;;;;;;;11.70;4.13;;;5.10;99.90;;;;;;5039492;28;20066;-62
2021/12/08 09:46:56;;;;;;;9.63;3.20;;;5.20;99.90;;;;;;5024611;28;20049;-64
2021/12/08 09:49:23;;;;;;;;;;;5.10;99.90;;;;;;5023339;28;20088;-65
2021/12/08 09:51:50;;;;;;;12.63;3.22;;;5.10;99.90;;;;;;5025278;28;19926;-64
2021/12/08 09:54:17;;;;;;;12.57;3.33;;;5.10;99.90;;;;;;5006578;28;20547;-63
2021/12/08 09:56:46;;;;;;;16.02;3.65;;;5.10;99.90;;;;;;5022518;28;20098;-77
2021/12/08 09:59:11;;;;;;;9.27;3.13;;;5.10;99.90;;;;;;5022517;28;20149;-62
2021/12/08 10:01:41;;;;;;;11.20;3.47;;;5.10;99.90;;;;;;5010187;28;20176;-64
2021/12/08 10:04:08;;;;;;;14.10;3.63;;;5.10;99.90;;;;;;5023222;28;20042;-63
2021/12/08 10:06:35;;;;;;;12.73;3.47;;;5.10;99.90;;;;;;5024198;28;20061;-62
2021/12/08 10:09:01;;;;;;;9.63;3.40;;;5.10;99.90;;;;;;5021457;28;20102;-66
2021/12/08 10:11:29;;;;;;;13.35;3.90;;;5.20;99.90;;;;;;5020528;28;20038;-64
2021/12/08 10:13:55;;;;;;;12.85;3.38;;;5.20;99.90;;;;;;5022633;28;20172;-66
2021/12/08 10:16:22;;;;;;;12.43;3.47;;;5.20;99.90;;;;;;5019552;28;20106;-66
2021/12/08 10:18:48;;;;;;;;;;;5.30;99.90;;;;;;5022143;28;20092;-67
2021/12/08 10:21:15;;;;;;;12.25;3.85;;;5.30;99.90;;;;;;5019492;28;19925;-68
2021/12/08 10:23:43;;;;;;;;;;;5.30;99.90;;;;;;5021324;28;20049;-66
2021/12/08 10:26:14;;;;;;;12.25;3.63;;;5.30;99.90;;;;;;5022056;28;19985;-65
2021/12/08 10:28:48;;;;;;;10.57;3.60;;;5.40;99.90;;;;;;5021997;28;20093;-65
2021/12/08 10:31:30;;;;;;;10.23;3.22;;;5.40;99.90;;;;;;5018060;28;20411;-66
2021/12/08 10:36:55;;;;;;;15.52;3.30;;;5.40;99.90;;;;;;5023979;28;20052;-68
2021/12/08 10:39:29;;;;;;;11.02;3.85;;;5.40;99.90;;;;;;5014590;28;20069;-65
2021/12/08 10:42:18;;;;;;;9.32;2.75;;;5.40;99.90;;;;;;5022060;28;20517;-65
2021/12/08 10:45:12;;;;;;;17.60;4.03;;;5.40;99.90;;;;;;5021720;28;20127;-66
2021/12/08 10:47:53;;;;;;;13.60;3.63;;;5.40;99.90;;;;;;5022135;28;20068;-62
2021/12/08 10:56:08;;;;;;;11.60;3.30;;;5.50;99.90;;;;;;5009258;28;20100;-63
2021/12/08 10:58:39;;;;;;;11.38;4.03;;;5.50;99.90;;;;;;5015440;28;20093;-64
2021/12/08 11:01:11;;;;;;;10.32;3.17;;;5.50;99.90;;;;;;5010124;28;20042;-62
2021/12/08 11:03:39;;;;;;;13.80;4.10;;;5.50;99.90;;;;;;5021766;28;20097;-62
2021/12/08 11:06:06;;;;;;;12.43;3.35;;;5.60;99.90;;;;;;5021625;28;20111;-63
2021/12/08 11:08:35;;;;;;;9.65;3.28;;;5.60;99.90;;;;;;5023272;28;20054;-64
2021/12/08 11:11:05;;;;;;;13.80;3.38;;;5.70;99.90;;;;;;5017602;28;20044;-61
2021/12/08 11:13:46;;;;;;;13.40;3.95;;;5.60;99.90;;;;;;5021191;28;20129;-61
2021/12/08 11:16:33;;;;;;;9.68;3.75;;;5.60;99.90;;;;;;5038288;28;20046;-65
2021/12/08 11:19:05;;;;;;;11.95;3.25;;;5.60;99.90;;;;;;5021259;28;20236;-65
2021/12/08 11:21:37;;;;;;;13.23;4.20;;;5.60;99.90;;;;;;5021663;28;20101;-64
2021/12/08 11:24:20;;;;;;;9.82;3.55;;;5.60;99.90;;;;;;5023444;28;20069;-63
2021/12/08 11:26:49;;;;;;;12.82;3.22;;;5.70;99.90;;;;;;5020779;28;20249;-63
2021/12/08 11:29:24;;;;;;;10.57;3.25;;;5.70;99.90;;;;;;5038459;28;20049;-64
2021/12/08 11:31:54;;;;;;;12.18;3.00;;;5.70;99.90;;;;;;5023640;28;20046;-63
2021/12/08 11:34:33;;;;;;;12.15;3.58;;;5.80;99.90;;;;;;5033841;28;20145;-63
2021/12/08 11:37:17;;;;;;;12.50;3.50;;;5.90;99.90;;;;;;5023173;28;20105;-63
2021/12/08 11:39:52;;;;;;;11.43;3.55;;;5.90;99.90;;;;;;5022843;28;20584;-64
2021/12/08 11:42:21;;;;;;;11.38;3.85;;;6.00;99.90;;;;;;5022801;28;20046;-64
2021/12/08 11:45:02;;;;;;;12.00;3.67;;;6.00;99.90;;;;;;5022469;28;20446;-64
2021/12/08 11:47:34;;;;;;;8.27;3.20;;;6.00;99.90;;;;;;5024202;28;20066;-64
2021/12/08 11:50:08;;;;;;;11.40;2.85;;;6.00;99.90;;;;;;5022596;28;20130;-63
2021/12/08 11:52:34;;;;;;;9.43;3.47;;;6.10;99.90;;;;;;5022363;28;20484;-63
2021/12/08 11:55:03;;;;;;;17.52;4.55;;;6.10;99.90;;;;;;5021764;28;20085;-63
2021/12/08 11:57:36;;;;;;;12.05;3.25;;;6.10;99.90;;;;;;5023558;28;20073;-63
2021/12/08 12:00:10;;;;;;;8.25;3.83;;;6.10;99.90;;;;;;5023825;28;20180;-63
2021/12/08 12:02:56;;;;;;;11.95;3.45;;;6.10;99.90;;;;;;5022751;28;20050;-63
2021/12/08 12:05:31;;;;;;;10.05;3.15;;;6.20;99.90;;;;;;5022391;28;20378;-65
2021/12/08 12:07:57;;;;;;;13.15;3.50;;;6.20;99.90;;;;;;5022178;28;20053;-64
2021/12/08 12:10:26;;;;;;;10.10;4.13;;;6.10;99.90;;;;;;5023777;28;20096;-64
2021/12/08 12:12:52;;;;;;;13.65;3.88;;;6.10;99.90;;;;;;5003672;28;20208;-64
2021/12/08 12:15:21;;;;;;;13.48;3.80;;;6.10;99.90;;;;;;5016346;28;20049;-64
2021/12/08 12:17:47;;;;;;;9.20;3.03;;;6.10;99.90;;;;;;5022095;28;20053;-65
2021/12/08 12:20:18;;;;;;;11.85;3.30;;;6.10;99.90;;;;;;5021936;28;20037;-64
2021/12/08 12:23:22;;;;;;;11.05;3.78;;;6.10;99.90;;;;;;5021774;28;20132;-65
2021/12/08 12:26:21;;;;;;;9.65;3.40;;;6.00;99.90;;;;;;5012242;28;20113;-66
2021/12/08 12:29:14;;;;;;;11.65;3.72;;;6.00;99.90;;;;;;5020437;28;20113;-66
2021/12/08 12:31:49;;;;;;;14.82;4.57;;;6.00;99.90;;;;;;5023100;28;20065;-67
2021/12/08 12:34:31;;;;;;;10.43;3.53;;;6.00;99.90;;;;;;5021628;28;20069;-63
2021/12/08 12:36:58;;;;;;;13.85;3.55;;;6.00;99.90;;;;;;5022848;28;20050;-61
2021/12/08 12:39:27;;;;;;;7.07;3.15;;;6.00;99.90;;;;;;5023180;28;20044;-64
2021/12/08 12:41:58;;;;;;;9.00;3.40;;;6.00;99.90;;;;;;5021528;28;20064;-64
2021/12/08 12:44:27;;;;;;;11.10;3.55;;;6.00;99.90;;;;;;5023239;28;20053;-63
2021/12/08 12:47:26;;;;;;;14.60;4.68;;;6.00;99.90;;;;;;5020818;28;20095;-64
2021/12/08 12:50:09;;;;;;;10.57;3.80;;;6.00;99.90;;;;;;5021332;28;20085;-64
2021/12/08 12:52:42;;;;;;;9.93;3.42;;;6.00;99.90;;;;;;5001969;28;20391;-63
2021/12/08 12:55:13;;;;;;;8.65;4.05;;;6.00;99.90;;;;;;5003560;28;20046;-64
2021/12/08 12:58:00;;;;;;;7.10;3.08;;;5.90;99.90;;;;;;5022266;28;20069;-64
2021/12/08 13:00:30;;;;;;;11.25;4.05;;;5.90;99.90;;;;;;5021488;28;20053;-63
2021/12/08 13:02:56;;;;;;;10.15;4.13;;;5.90;99.90;;;;;;5020577;28;20053;-63
2021/12/08 13:05:22;;;;;;;14.03;3.97;;;5.90;99.90;;;;;;5021467;28;20058;-63
2021/12/08 13:07:59;;;;;;;14.38;3.92;;;6.00;99.90;;;;;;5021119;28;20515;-64
2021/12/08 13:10:38;;;;;;;7.65;3.30;;;6.00;99.90;;;;;;5020544;28;20062;-64
2021/12/08 13:13:13;;;;;;;9.50;3.45;;;6.00;99.90;;;;;;5020673;28;20061;-63
2021/12/08 13:15:43;;;;;;;12.93;3.78;;;6.00;99.90;;;;;;5020814;28;20058;-63
2021/12/08 13:18:12;;;;;;;13.23;3.60;;;6.00;99.90;;;;;;5022115;28;20057;-64
2021/12/08 13:20:42;;;;;;;9.88;3.30;;;6.00;99.90;;;;;;5022274;28;20038;-63
2021/12/08 13:23:17;;;;;;;8.07;3.20;;;6.00;99.90;;;;;;5021073;28;20046;-63
2021/12/08 13:28:37;;;;;;;11.13;3.80;;;6.00;99.90;;;;;;5002920;28;20046;-63
2021/12/08 13:31:12;;;;;;;9.02;3.22;;;6.00;99.90;;;;;;5000921;28;20064;-64
2021/12/08 13:34:06;;;;;;;13.77;3.63;;;6.00;99.90;;;;;;4981582;28;20046;-64
2021/12/08 13:36:43;;;;;;;12.00;3.80;;;6.00;99.90;;;;;;4959122;28;20061;-66
2021/12/08 13:39:11;;;;;;;14.20;3.53;;;6.00;99.90;;;;;;4985063;28;20054;-63
2021/12/08 13:41:41;;;;;;;12.55;3.60;;;6.00;99.90;;;;;;5012386;28;20154;-62
2021/12/08 13:44:25;;;;;;;11.27;3.65;;;6.00;99.90;;;;;;5011703;28;20034;-62
2021/12/08 13:46:56;;;;;;;10.00;3.83;;;5.90;99.90;;;;;;5002908;28;20056;-62
2021/12/08 13:49:26;;;;;;;11.75;3.33;;;5.90;99.90;;;;;;5019114;28;20095;-64
2021/12/08 13:52:06;;;;;;;10.00;3.13;;;5.90;99.90;;;;;;5003126;28;20054;-63
2021/12/08 13:54:33;;;;;;;8.80;3.58;;;6.00;99.90;;;;;;5017110;28;20101;-63
2021/12/08 13:57:03;;;;;;;6.93;3.25;;;5.90;99.90;;;;;;5002643;28;20148;-63
2021/12/08 13:59:50;;;;;;;13.02;4.05;;;6.00;99.90;;;;;;5019444;28;20173;-63
2021/12/08 14:02:41;;;;;;;9.95;3.40;;;5.90;99.90;;;;;;4992184;28;20161;-62
2021/12/08 14:05:25;;;;;;;8.35;3.13;;;5.90;99.90;;;;;;5005197;28;20054;-63